Flight Track Log - Related Links

Times and Time Zones

All times are in EDT time to prevent confusion due to time zone crossing. See the SWA508 flight status page for this flight to view local times or setup timezone preferences in your user account.

Time Position Orientation Groundspeed Altitude Reporting Facility
EDT Latitude Longitude Course Direction KTS MPH feet Rate Location/Type
Mon 05:02:17 PM 39.9625 -75.1744 29° Northeast 176 203 7,900  Level New York Center
Mon 05:03:17 PM 39.9681 -75.2508 275° West 213 245 10,000 1,041 Climbing New York Center
Mon 05:04:18 PM 39.9556 -75.3611 262° West 276 318 10,000  Level New York Center
Mon 05:05:18 PM 39.9428 -75.4711 261° West 336 387 10,000 356 Level New York Center
Mon 05:06:16 PM 39.9244 -75.6161 261° West 348 400 10,700 800 Climbing New York Center
Mon 05:07:18 PM 39.8986 -75.7333 254° West 348 400 11,600 2,213 Climbing New York Center
Mon 05:08:18 PM 39.8706 -75.8531 253° West 353 406 15,200 3,254 Climbing New York Center
Mon 05:09:16 PM 39.8444 -75.9756 255° West 353 406 18,000 3,126 Climbing New York Center
Mon 05:10:17 PM 39.8181 -76.0953 254° West 366 421 21,400 2,479 Climbing New York Center
Mon 05:11:17 PM 39.7806 -76.2358 251° West 376 433 23,000 1,850 Climbing New York Center
Mon 05:12:17 PM 39.7492 -76.3711 253° West 381 438 25,100 2,147 Climbing New York Center
Mon 05:13:06 PM 39.7292 -76.4683 255° West 390 449 26,900 2,355 Climbing Washington Center
Mon 05:14:04 PM 39.6864 -76.6189 250° West 398 458 29,300 2,593 Climbing Washington Center
Mon 05:15:04 PM 39.6539 -76.7611 254° West 404 465 32,000 2,557 Climbing Washington Center
Mon 05:16:06 PM 39.6211 -76.8981 253° West 409 471 34,500 2,050 Climbing Washington Center
Mon 05:17:04 PM 39.5864 -77.0347 252° West 403 464 36,100 1,513 Climbing Washington Center
Mon 05:18:05 PM 39.5533 -77.1714 253° West 403 464 37,500 1,240 Climbing Washington Center
Mon 05:19:05 PM 39.5203 -77.3106 253° West 403 464 38,600 1,240 Climbing Washington Center
Mon 05:20:06 PM 39.4869 -77.4497 253° West 403 464 40,000 700 Climbing Washington Center
Mon 05:21:05 PM 39.4511 -77.5911 252° West 408 470 40,000  Level Washington Center
Mon 05:22:05 PM 39.4133 -77.7325 251° West 408 470 40,000  Level Washington Center
Mon 05:23:06 PM 39.3775 -77.8683 251° West 408 470 40,000  Level Washington Center
Mon 05:24:06 PM 39.3250 -77.9983 242° Southwest 408 470 40,000  Level Washington Center
Mon 05:25:06 PM 39.2744 -78.1306 244° Southwest 413 475 40,000  Level Washington Center
Mon 05:26:04 PM 39.2214 -78.2600 242° Southwest 413 475 40,000  Level Washington Center
Mon 05:27:05 PM 39.1706 -78.3919 244° Southwest 413 475 40,000  Level Washington Center
Mon 05:28:05 PM 39.1175 -78.5211 242° Southwest 413 475 40,000  Level Washington Center
Mon 05:29:05 PM 39.0642 -78.6500 242° Southwest 413 475 40,000  Level Washington Center
Mon 05:30:06 PM 39.0131 -78.7786 243° Southwest 408 470 40,000  Level Washington Center
Mon 05:31:06 PM 38.9617 -78.9047 242° Southwest 402 463 40,000  Level Washington Center
Mon 05:32:05 PM 38.9100 -79.0331 243° Southwest 402 463 40,000  Level Washington Center
Mon 05:33:05 PM 38.8561 -79.1639 242° Southwest 402 463 40,000  Level Washington Center
Mon 05:34:07 PM 38.8250 -79.2956 253° West 402 463 40,000  Level Washington Center
Mon 05:35:04 PM 38.7997 -79.4356 257° West 402 463 40,000  Level Washington Center
Mon 05:36:04 PM 38.7789 -79.5675 259° West 402 463 40,000  Level Washington Center
Mon 05:37:06 PM 38.7511 -79.7072 256° West 414 476 40,000  Level Washington Center
Mon 05:38:47 PM 38.7025 -79.9553 256° West 405 466 40,000  Level Indianapolis Center
Mon 05:39:49 PM 38.6756 -80.0967 256° West 407 468 40,000  Level Indianapolis Center
Mon 05:40:51 PM 38.6500 -80.2353 257° West 403 464 40,000  Level Indianapolis Center
Mon 05:41:53 PM 38.6242 -80.3750 257° West 403 464 40,000  Level Indianapolis Center
Mon 05:42:55 PM 38.5975 -80.5147 256° West 403 464 40,000  Level Indianapolis Center
Mon 05:43:57 PM 38.5750 -80.6569 259° West 407 468 40,000  Level Indianapolis Center
Mon 05:44:59 PM 38.5597 -80.8017 262° West 410 472 40,000  Level Indianapolis Center
Mon 05:46:01 PM 38.5392 -80.9739 261° West 410 472 40,000  Level Indianapolis Center
Mon 05:47:03 PM 38.5217 -81.1178 261° West 408 470 40,000  Level Indianapolis Center
Mon 05:48:05 PM 38.5053 -81.2603 262° West 405 466 40,000  Level Indianapolis Center
Mon 05:49:07 PM 38.4889 -81.4039 262° West 403 464 40,000  Level Indianapolis Center
Mon 05:50:09 PM 38.4747 -81.5494 263° West 406 467 40,000  Level Indianapolis Center
Mon 05:51:11 PM 38.4433 -81.6892 254° West 407 468 40,000  Level Indianapolis Center
Mon 05:52:13 PM 38.4022 -81.8233 249° West 406 467 40,000  Level Indianapolis Center
Mon 05:53:15 PM 38.3608 -81.9578 249° West 406 467 40,000  Level Indianapolis Center
Mon 05:54:17 PM 38.3192 -82.0925 249° West 408 470 40,000  Level Indianapolis Center
Mon 05:55:19 PM 38.2697 -82.2539 249° West 408 470 40,000  Level Indianapolis Center
Mon 05:56:21 PM 38.2272 -82.3867 248° West 407 468 40,000  Level Indianapolis Center
Mon 05:57:23 PM 38.1833 -82.5283 249° West 409 471 40,000  Level Indianapolis Center
Mon 05:58:25 PM 38.1406 -82.6625 248° West 409 471 40,000  Level Indianapolis Center
Mon 05:59:27 PM 38.0786 -82.7850 237° Southwest 409 471 40,000  Level Indianapolis Center
Mon 06:00:29 PM 38.0181 -82.9089 238° Southwest 413 475 40,000  Level Indianapolis Center
Mon 06:01:31 PM 37.9467 -83.0556 238° Southwest 419 482 40,000  Level Indianapolis Center
Mon 06:02:33 PM 37.8844 -83.1781 237° Southwest 416 479 40,000 -288 Level Indianapolis Center
Mon 06:03:36 PM 37.8239 -83.3033 239° Southwest 417 480 39,400 -720 Descending Indianapolis Center
Mon 06:04:38 PM 37.7611 -83.4278 237° Southwest 419 482 38,500 -871 Descending Indianapolis Center
Mon 06:05:40 PM 37.6992 -83.5550 238° Southwest 424 488 37,600 -726 Descending Indianapolis Center
Mon 06:06:42 PM 37.6256 -83.7000 237° Southwest 422 486 37,000 -581 Descending Indianapolis Center
Mon 06:07:44 PM 37.5622 -83.8281 238° Southwest 429 494 36,400 -726 Descending Indianapolis Center
Mon 06:08:46 PM 37.4967 -83.9567 237° Southwest 435 501 35,500 -919 Descending Indianapolis Center
Mon 06:09:48 PM 37.4306 -84.0869 237° Southwest 439 505 34,500 -968 Descending Indianapolis Center
Mon 06:10:50 PM 37.3656 -84.2169 238° Southwest 439 505 33,500 -726 Descending Indianapolis Center
Mon 06:11:52 PM 37.2917 -84.3600 237° Southwest 422 486 33,000 -242 Descending Indianapolis Center
Mon 06:12:54 PM 37.2283 -84.4847 237° Southwest 423 487 33,000  Level Indianapolis Center
Mon 06:13:56 PM 37.1636 -84.6108 237° Southwest 430 495 33,000  Level Indianapolis Center
Mon 06:14:58 PM 37.0997 -84.7325 237° Southwest 423 487 33,000 -629 Level Indianapolis Center
Mon 06:16:00 PM 37.0364 -84.8561 237° Southwest 424 488 31,700 -1,258 Descending Indianapolis Center
Mon 06:17:02 PM 36.9722 -84.9800 237° Southwest 424 488 30,400 -1,984 Descending Indianapolis Center
Mon 06:18:04 PM 36.8950 -85.1269 237° Southwest 422 486 27,600 -2,468 Descending Indianapolis Center
Mon 06:19:06 PM 36.8333 -85.2456 237° Southwest 409 471 25,300 -2,323 Descending Indianapolis Center
Mon 06:20:08 PM 36.7725 -85.3600 236° Southwest 399 459 22,800 -1,610 Descending Indianapolis Center
Mon 06:21:09 PM 36.7131 -85.4833 239° Southwest 403 464 22,000 -397 Descending Memphis Center
Mon 06:22:09 PM 36.6611 -85.5900 239° Southwest 394 453 22,000 -200 Level Memphis Center
Mon 06:23:09 PM 36.6031 -85.7097 239° Southwest 404 465 21,600 -1,650 Descending Memphis Center
Mon 06:24:09 PM 36.5431 -85.8369 240° Southwest 396 456 18,700 -2,700 Descending Memphis Center
Mon 06:25:09 PM 36.4908 -85.9458 239° Southwest 389 448 16,200 -2,500 Descending Memphis Center
Mon 06:26:09 PM 36.4406 -86.0569 241° Southwest 378 435 13,700 -2,450 Descending Memphis Center
Mon 06:27:09 PM 36.3917 -86.1575 239° Southwest 363 418 11,300 -1,650 Descending Memphis Center
Mon 06:28:09 PM 36.3469 -86.2472 238° Southwest 358 412 10,400 -900 Descending Memphis Center
Mon 06:29:09 PM 36.3039 -86.3369 239° Southwest 330 380 9,500 -1,200 Descending Memphis Center
Mon 06:30:09 PM 36.2650 -86.4186 239° Southwest 296 341 8,000 -1,450 Descending Memphis Center
Mon 06:31:09 PM 36.2258 -86.5003 239° Southwest 278 320 6,600 -1,150 Descending Memphis Center
Mon 06:32:09 PM 36.1603 -86.5394 206° Southwest 262 302 5,700 -800 Descending Memphis Center
Mon 06:33:09 PM 36.0903 -86.5711 200° South 254 292 5,000 -1,250 Descending Memphis Center
Mon 06:34:09 PM 36.0328 -86.5967 200° South 232 267 3,200 -1,300 Descending Memphis Center
Mon 06:35:09 PM 36.0344 -86.6583 272° West 150 173 2,400 -800 Descending Memphis Center
Mon 06:36:09 PM 36.0644 -86.6825 327° Northwest 124 143 1,600 -750 Descending Memphis Center
Mon 06:37:09 PM 36.0997 -86.6733 12° North 101 116 900 -700 Descending Memphis Center
Mon 06:39:00 PM 36.1167 -86.6667 287° West  Level FlightAware Approximate
Mon 06:46:00 PM 36.1245 -86.6782 287° West  Level Estimated
Mon 06:47:00 PM 36.1245 -86.6782 287° West  Level Estimated
Mon 06:48:00 PM 36.1245 -86.6782 287° West  Level Estimated
Mon 06:49:00 PM 36.1245 -86.6782 287° West  Level Estimated
Mon 06:50:00 PM 36.1245 -86.6782 287° West  Level Estimated
Mon 06:51:00 PM 36.1245 -86.6782 287° West  Level Estimated
Mon 06:52:00 PM 36.1245 -86.6782 287° West  Level Estimated
Mon 06:53:00 PM 36.1245 -86.6782 287° West  Level Estimated

Login

Don't have an account? Register now (free) for customized features, flight alerts, and more!